createdAt,value
2022-08-17T00:00:34.184Z,29.30
2022-08-17T00:05:58.820Z,26.52
2022-08-17T00:11:01.591Z,27.48
2022-08-17T00:16:08.758Z,28.50
2022-08-17T00:21:11.827Z,25.50
2022-08-17T00:26:16.118Z,25.83
2022-08-17T00:31:39.248Z,23.85
2022-08-17T00:36:41.345Z,21.55
2022-08-17T00:41:43.120Z,23.98
2022-08-17T00:46:45.025Z,19.27
2022-08-17T00:51:50.541Z,18.20
2022-08-17T00:56:56.728Z,21.50
2022-08-17T01:01:59.206Z,20.73
2022-08-17T01:07:03.408Z,21.52
2022-08-17T01:12:08.456Z,26.38
2022-08-17T01:17:10.507Z,26.58
2022-08-17T01:22:11.982Z,28.25
2022-08-17T01:27:15.080Z,28.73
2022-08-17T01:32:20.189Z,26.60
2022-08-17T01:37:29.988Z,26.05
2022-08-17T01:42:46.573Z,26.00
2022-08-17T01:47:48.379Z,28.88
2022-08-17T01:52:56.401Z,29.23
2022-08-17T01:57:58.211Z,33.42
2022-08-17T02:03:00.538Z,32.50
2022-08-17T02:08:03.647Z,29.88
2022-08-17T02:13:07.333Z,26.77
2022-08-17T02:18:10.315Z,28.95
2022-08-17T02:23:13.171Z,28.45
2022-08-17T02:28:15.128Z,29.35
2022-08-17T02:33:16.711Z,30.05
2022-08-17T02:38:21.879Z,31.63
2022-08-17T02:43:23.390Z,32.65
2022-08-17T02:48:29.708Z,33.60
2022-08-17T02:53:36.165Z,29.88
2022-08-17T02:58:37.881Z,29.92
2022-08-17T03:03:40.012Z,30.20
2022-08-17T03:08:41.527Z,33.92
2022-08-17T03:13:43.037Z,29.13
2022-08-17T03:18:44.555Z,27.75
2022-08-17T03:23:46.119Z,27.80
2022-08-17T03:28:47.792Z,28.70
2022-08-17T03:33:49.409Z,30.75
2022-08-17T03:38:51.074Z,29.48
2022-08-17T03:43:52.705Z,29.58
2022-08-17T03:49:13.104Z,29.42
2022-08-17T03:54:33.172Z,28.02
2022-08-17T03:59:36.216Z,28.00
2022-08-17T04:04:38.480Z,26.92
2022-08-17T04:09:40.030Z,20.63
2022-08-17T04:14:51.626Z,22.77
2022-08-17T04:19:56.275Z,22.80
2022-08-17T04:24:57.914Z,20.80
2022-08-17T04:30:00.974Z,20.98
2022-08-17T04:35:02.507Z,17.85
2022-08-17T04:40:22.851Z,9.05
2022-08-17T04:45:32.427Z,17.55
2022-08-17T04:50:36.030Z,14.50
2022-08-17T04:55:38.161Z,14.43
2022-08-17T05:00:40.092Z,13.88
2022-08-17T05:05:43.337Z,14.32
2022-08-17T05:10:45.811Z,13.73
2022-08-17T05:15:49.710Z,10.38
2022-08-17T05:20:52.534Z,8.45
2022-08-17T05:25:56.393Z,10.35
2022-08-17T05:31:01.312Z,12.98
2022-08-17T05:36:05.351Z,11.98
2022-08-17T05:46:27.361Z,13.95
2022-08-17T05:51:53.012Z,13.35
2022-08-17T05:57:06.680Z,15.05
2022-08-17T06:02:23.328Z,14.57
2022-08-17T06:07:31.593Z,14.93
2022-08-17T06:12:57.591Z,15.45
2022-08-17T06:18:05.846Z,16.40
2022-08-17T06:23:12.722Z,19.00
2022-08-17T06:28:18.782Z,18.20
2022-08-17T06:33:26.643Z,17.10
2022-08-17T06:38:41.210Z,16.60
2022-08-17T06:44:06.866Z,17.75
2022-08-17T06:49:30.155Z,19.42
2022-08-17T06:54:39.371Z,21.23
2022-08-17T06:59:56.451Z,19.52
2022-08-17T07:05:01.704Z,21.20
2022-08-17T07:10:03.610Z,21.23
2022-08-17T07:15:12.487Z,22.85
2022-08-17T07:20:23.307Z,22.40
2022-08-17T07:25:25.783Z,24.23
2022-08-17T07:30:45.554Z,24.48
2022-08-17T07:35:50.017Z,28.00
2022-08-17T07:40:58.038Z,26.73
2022-08-17T07:46:24.041Z,29.23
2022-08-17T07:51:28.767Z,24.33
2022-08-17T07:57:00.386Z,24.00
2022-08-17T08:02:16.268Z,24.42
2022-08-17T08:07:20.216Z,25.40
2022-08-17T08:12:24.680Z,25.35
2022-08-17T08:17:44.797Z,24.13
2022-08-17T08:22:57.768Z,23.10
2022-08-17T08:28:27.538Z,22.80
2022-08-17T08:33:49.248Z,25.23
2022-08-17T08:39:02.905Z,26.20
2022-08-17T08:44:59.528Z,26.23
2022-08-17T08:50:07.587Z,26.10
2022-08-17T08:55:34.426Z,24.52
2022-08-17T09:00:44.055Z,24.15
2022-08-17T09:06:33.330Z,21.65
2022-08-17T09:12:01.031Z,23.13
2022-08-17T09:17:14.298Z,24.67
2022-08-17T09:22:26.412Z,21.63
2022-08-17T09:27:34.874Z,21.27
2022-08-17T09:32:39.404Z,19.20
2022-08-17T09:38:02.124Z,18.33
2022-08-17T09:43:19.937Z,18.13
2022-08-17T09:48:29.186Z,19.13
2022-08-17T09:53:32.194Z,17.85
2022-08-17T09:58:52.061Z,18.55
2022-08-17T10:04:18.729Z,18.60
2022-08-17T10:09:55.579Z,15.82
2022-08-17T10:14:59.894Z,15.73
2022-08-17T10:20:17.179Z,13.40
2022-08-17T10:25:54.038Z,14.88
2022-08-17T10:31:30.983Z,12.13
2022-08-17T10:36:52.415Z,12.48
2022-08-17T10:41:59.227Z,10.57
2022-08-17T10:47:14.397Z,8.52
2022-08-17T10:52:28.058Z,9.55
2022-08-17T10:57:29.660Z,9.88
2022-08-17T11:02:50.971Z,7.32
2022-08-17T11:08:14.454Z,7.22
2022-08-17T11:13:35.404Z,5.43
2022-08-17T11:19:08.571Z,5.38
2022-08-17T11:24:14.727Z,6.18
2022-08-17T11:29:24.776Z,5.55
2022-08-17T11:34:29.982Z,5.43
2022-08-17T11:39:34.826Z,5.75
2022-08-17T11:44:59.541Z,8.00
2022-08-17T11:50:36.646Z,6.63
2022-08-17T11:55:41.868Z,7.18
2022-08-17T12:00:46.324Z,8.90
2022-08-17T12:05:48.440Z,8.82
2022-08-17T12:10:56.005Z,7.27
2022-08-17T12:15:58.332Z,6.82
2022-08-17T12:21:22.157Z,7.20
2022-08-17T12:26:31.606Z,7.00
2022-08-17T12:31:47.192Z,5.38
2022-08-17T12:36:51.309Z,6.35
2022-08-17T12:42:01.963Z,7.38
2022-08-17T12:47:19.354Z,7.25
2022-08-17T12:52:26.743Z,7.07
2022-08-17T12:57:47.568Z,7.35
2022-08-17T13:03:21.725Z,7.10
2022-08-17T13:08:45.466Z,7.18
2022-08-17T13:13:54.833Z,7.82
2022-08-17T13:19:15.092Z,9.60
2022-08-17T13:24:38.206Z,7.60
2022-08-17T13:29:52.968Z,8.50
2022-08-17T13:35:12.867Z,8.02
2022-08-17T13:40:18.185Z,7.30
2022-08-17T13:45:36.514Z,7.78
2022-08-17T13:50:47.674Z,7.68
2022-08-17T13:55:59.224Z,7.38
2022-08-17T14:01:34.049Z,7.45
2022-08-17T14:06:53.984Z,6.03
2022-08-17T14:11:58.170Z,5.63
2022-08-17T14:16:59.789Z,5.95
2022-08-17T14:22:01.791Z,5.82
2022-08-17T14:27:05.341Z,5.72
2022-08-17T14:32:17.725Z,6.00
2022-08-17T14:37:21.088Z,6.35
2022-08-17T14:42:27.053Z,6.18
2022-08-17T14:47:28.594Z,6.45
2022-08-17T14:52:30.426Z,6.22
2022-08-17T14:57:34.078Z,6.10
2022-08-17T15:02:54.691Z,5.72
2022-08-17T15:07:56.349Z,6.38
2022-08-17T15:13:00.182Z,6.25
2022-08-17T15:18:02.383Z,7.00
2022-08-17T15:23:04.372Z,6.90
2022-08-17T15:28:07.371Z,6.38
2022-08-17T15:33:19.047Z,8.38
2022-08-17T15:38:20.645Z,7.18
2022-08-17T15:43:28.390Z,8.05
2022-08-17T15:48:41.716Z,7.75
2022-08-17T15:53:45.818Z,7.47
2022-08-17T15:58:48.668Z,7.95
2022-08-17T16:04:03.975Z,9.48
2022-08-17T16:09:08.897Z,9.88
2022-08-17T16:14:10.418Z,9.00
2022-08-17T16:19:15.338Z,8.40
2022-08-17T16:24:16.859Z,9.32
2022-08-17T16:29:18.498Z,8.25
2022-08-17T16:34:20.027Z,6.68
2022-08-17T16:39:21.627Z,5.88
2022-08-17T16:44:23.572Z,3.50
2022-08-17T16:49:37.465Z,3.50
2022-08-17T16:54:44.377Z,3.40
2022-08-17T16:59:51.332Z,3.08
2022-08-17T17:05:05.818Z,3.83
2022-08-17T17:10:14.117Z,3.55
2022-08-17T17:15:22.010Z,3.88
2022-08-17T17:20:28.366Z,4.18
2022-08-17T17:25:44.500Z,4.25
2022-08-17T17:30:50.303Z,4.47
2022-08-17T17:35:59.085Z,4.57
2022-08-17T17:41:05.489Z,4.20
2022-08-17T17:46:29.162Z,3.85
2022-08-17T17:52:05.899Z,3.60
2022-08-17T17:57:20.485Z,3.90
2022-08-17T18:02:53.160Z,3.97
2022-08-17T18:08:31.927Z,3.80
2022-08-17T18:13:53.505Z,3.72
2022-08-17T18:18:57.651Z,4.35
2022-08-17T18:24:01.262Z,4.82
2022-08-17T18:34:45.808Z,5.85
2022-08-17T18:39:46.846Z,6.53
2022-08-17T18:44:54.331Z,7.75
2022-08-17T18:50:25.477Z,9.82
2022-08-17T18:55:29.231Z,9.40
2022-08-17T19:00:33.691Z,9.55
2022-08-17T19:05:41.969Z,9.02
2022-08-17T19:10:47.145Z,11.43
2022-08-17T19:16:29.918Z,10.70
2022-08-17T19:21:40.270Z,12.48
2022-08-17T19:26:54.452Z,13.88
2022-08-17T19:31:59.294Z,13.45
2022-08-17T19:37:23.242Z,13.55
2022-08-17T19:43:03.114Z,13.55
2022-08-17T19:48:07.557Z,13.35
2022-08-17T19:54:04.816Z,11.55
2022-08-17T19:59:36.368Z,12.07
2022-08-17T20:04:43.056Z,12.10
2022-08-17T20:09:51.623Z,13.60
2022-08-17T20:14:57.612Z,16.63
2022-08-17T20:20:25.856Z,14.60
2022-08-17T20:25:46.835Z,15.70
2022-08-17T20:30:48.759Z,16.05
2022-08-17T20:36:09.951Z,18.48
2022-08-17T20:41:15.393Z,18.52
2022-08-17T20:46:28.892Z,19.90
2022-08-17T20:51:40.138Z,20.95
2022-08-17T20:56:44.692Z,18.45
2022-08-17T21:02:02.618Z,15.80
2022-08-17T21:07:43.030Z,16.30
2022-08-17T21:12:53.950Z,19.25
2022-08-17T21:18:12.734Z,21.15
2022-08-17T21:23:30.249Z,19.20
2022-08-17T21:29:00.348Z,20.58
2022-08-17T21:34:14.880Z,18.58
2022-08-17T21:44:50.299Z,10.35
2022-08-17T21:49:53.492Z,11.95
2022-08-17T21:55:02.286Z,12.90
2022-08-17T22:00:15.978Z,10.50
2022-08-17T22:05:31.880Z,7.45
2022-08-17T22:11:01.084Z,7.65
2022-08-17T22:16:28.319Z,8.27
2022-08-17T22:21:31.159Z,7.68
2022-08-17T22:27:03.075Z,6.78
2022-08-17T22:32:04.953Z,6.45
2022-08-17T22:37:28.381Z,5.72
2022-08-17T22:42:30.042Z,7.05
2022-08-17T22:47:40.899Z,5.07
2022-08-17T22:53:14.001Z,4.50
2022-08-17T22:58:38.248Z,4.18
2022-08-17T23:03:54.994Z,3.28
2022-08-17T23:08:57.602Z,3.58
2022-08-17T23:13:59.370Z,3.90
2022-08-17T23:19:00.915Z,3.53
2022-08-17T23:24:04.626Z,3.95
2022-08-17T23:29:08.907Z,3.60
2022-08-17T23:34:13.131Z,3.63
2022-08-17T23:39:14.666Z,3.38
2022-08-17T23:44:27.628Z,3.72
2022-08-17T23:49:31.185Z,3.80
2022-08-17T23:54:43.503Z,4.32
2022-08-17T23:59:45.126Z,4.30
